sensor_id;sensor_type;location;lat;lon;timestamp;P1;durP1;ratioP1;P2;durP2;ratioP2
28802;SDS011;15949;55.656;37.422;2022-10-19T00:00:39;7.60;;;3.22;;
28802;SDS011;15949;55.656;37.422;2022-10-19T00:05:45;8.13;;;3.35;;
28802;SDS011;15949;55.656;37.422;2022-10-19T00:10:50;5.57;;;3.22;;
28802;SDS011;15949;55.656;37.422;2022-10-19T00:15:56;8.23;;;4.00;;
28802;SDS011;15949;55.656;37.422;2022-10-19T00:21:04;7.20;;;4.63;;
28802;SDS011;15949;55.656;37.422;2022-10-19T00:26:11;5.32;;;3.50;;
28802;SDS011;15949;55.656;37.422;2022-10-19T00:31:17;5.90;;;3.05;;
28802;SDS011;15949;55.656;37.422;2022-10-19T00:36:24;6.07;;;3.47;;
28802;SDS011;15949;55.656;37.422;2022-10-19T00:41:34;6.18;;;3.47;;
28802;SDS011;15949;55.656;37.422;2022-10-19T00:46:42;4.75;;;2.58;;
28802;SDS011;15949;55.656;37.422;2022-10-19T00:51:50;4.07;;;2.90;;
28802;SDS011;15949;55.656;37.422;2022-10-19T00:56:58;6.32;;;2.30;;
28802;SDS011;15949;55.656;37.422;2022-10-19T01:02:04;6.68;;;2.90;;
28802;SDS011;15949;55.656;37.422;2022-10-19T01:07:11;7.65;;;2.90;;
28802;SDS011;15949;55.656;37.422;2022-10-19T01:24:10;4.40;;;2.83;;
28802;SDS011;15949;55.656;37.422;2022-10-19T01:40:51;4.45;;;3.25;;
28802;SDS011;15949;55.656;37.422;2022-10-19T01:46:05;5.57;;;3.25;;
28802;SDS011;15949;55.656;37.422;2022-10-19T01:51:21;4.07;;;3.10;;
28802;SDS011;15949;55.656;37.422;2022-10-19T01:56:30;6.88;;;3.10;;
28802;SDS011;15949;55.656;37.422;2022-10-19T02:01:39;4.68;;;3.05;;
28802;SDS011;15949;55.656;37.422;2022-10-19T02:06:49;6.35;;;3.05;;
28802;SDS011;15949;55.656;37.422;2022-10-19T02:11:58;3.90;;;2.88;;
28802;SDS011;15949;55.656;37.422;2022-10-19T02:17:08;6.35;;;2.78;;
28802;SDS011;15949;55.656;37.422;2022-10-19T02:22:16;9.65;;;2.78;;
28802;SDS011;15949;55.656;37.422;2022-10-19T02:27:22;4.85;;;3.00;;
28802;SDS011;15949;55.656;37.422;2022-10-19T02:32:28;6.25;;;2.70;;
28802;SDS011;15949;55.656;37.422;2022-10-19T02:37:33;7.30;;;2.75;;
28802;SDS011;15949;55.656;37.422;2022-10-19T02:42:53;4.53;;;2.70;;
28802;SDS011;15949;55.656;37.422;2022-10-19T02:48:10;3.83;;;2.72;;
28802;SDS011;15949;55.656;37.422;2022-10-19T02:53:24;5.63;;;3.17;;
28802;SDS011;15949;55.656;37.422;2022-10-19T02:58:30;8.95;;;2.97;;
28802;SDS011;15949;55.656;37.422;2022-10-19T03:03:35;7.30;;;3.17;;
28802;SDS011;15949;55.656;37.422;2022-10-19T03:08:41;3.05;;;2.75;;
28802;SDS011;15949;55.656;37.422;2022-10-19T03:13:46;4.35;;;2.95;;
28802;SDS011;15949;55.656;37.422;2022-10-19T03:18:52;5.00;;;3.15;;
28802;SDS011;15949;55.656;37.422;2022-10-19T03:23:59;3.53;;;3.08;;
28802;SDS011;15949;55.656;37.422;2022-10-19T03:29:05;6.00;;;2.90;;
28802;SDS011;15949;55.656;37.422;2022-10-19T03:34:10;4.82;;;3.28;;
28802;SDS011;15949;55.656;37.422;2022-10-19T03:39:16;5.13;;;3.05;;
28802;SDS011;15949;55.656;37.422;2022-10-19T03:44:21;4.90;;;3.50;;
28802;SDS011;15949;55.656;37.422;2022-10-19T03:49:27;7.68;;;4.15;;
28802;SDS011;15949;55.656;37.422;2022-10-19T03:54:33;6.22;;;3.47;;
28802;SDS011;15949;55.656;37.422;2022-10-19T03:59:38;6.63;;;3.70;;
28802;SDS011;15949;55.656;37.422;2022-10-19T04:04:44;4.22;;;3.35;;
28802;SDS011;15949;55.656;37.422;2022-10-19T04:09:49;4.97;;;3.33;;
28802;SDS011;15949;55.656;37.422;2022-10-19T04:14:55;5.25;;;3.38;;
28802;SDS011;15949;55.656;37.422;2022-10-19T04:20:00;5.75;;;3.75;;
28802;SDS011;15949;55.656;37.422;2022-10-19T04:25:07;6.25;;;3.63;;
28802;SDS011;15949;55.656;37.422;2022-10-19T04:30:13;3.50;;;2.33;;
28802;SDS011;15949;55.656;37.422;2022-10-19T04:35:19;8.45;;;3.05;;
28802;SDS011;15949;55.656;37.422;2022-10-19T04:40:25;4.93;;;2.90;;
28802;SDS011;15949;55.656;37.422;2022-10-19T04:45:30;4.80;;;2.88;;
28802;SDS011;15949;55.656;37.422;2022-10-19T04:50:39;5.60;;;3.23;;
28802;SDS011;15949;55.656;37.422;2022-10-19T04:55:44;7.03;;;3.70;;
28802;SDS011;15949;55.656;37.422;2022-10-19T05:00:50;7.47;;;3.25;;
28802;SDS011;15949;55.656;37.422;2022-10-19T05:05:57;5.43;;;3.42;;
28802;SDS011;15949;55.656;37.422;2022-10-19T05:11:11;6.47;;;3.75;;
28802;SDS011;15949;55.656;37.422;2022-10-19T05:16:19;5.65;;;3.70;;
28802;SDS011;15949;55.656;37.422;2022-10-19T05:21:27;5.80;;;3.50;;
28802;SDS011;15949;55.656;37.422;2022-10-19T05:26:33;6.13;;;3.97;;
28802;SDS011;15949;55.656;37.422;2022-10-19T05:31:38;10.45;;;5.10;;
28802;SDS011;15949;55.656;37.422;2022-10-19T05:36:44;7.70;;;4.90;;
28802;SDS011;15949;55.656;37.422;2022-10-19T05:41:50;9.73;;;5.70;;
28802;SDS011;15949;55.656;37.422;2022-10-19T05:46:55;8.88;;;5.57;;
28802;SDS011;15949;55.656;37.422;2022-10-19T05:52:01;8.90;;;6.20;;
28802;SDS011;15949;55.656;37.422;2022-10-19T05:57:07;8.00;;;6.00;;
28802;SDS011;15949;55.656;37.422;2022-10-19T06:02:12;10.02;;;6.85;;
28802;SDS011;15949;55.656;37.422;2022-10-19T06:07:18;8.50;;;6.97;;
28802;SDS011;15949;55.656;37.422;2022-10-19T06:12:23;13.25;;;7.03;;
28802;SDS011;15949;55.656;37.422;2022-10-19T06:17:29;12.63;;;9.10;;
28802;SDS011;15949;55.656;37.422;2022-10-19T06:22:34;14.93;;;13.07;;
28802;SDS011;15949;55.656;37.422;2022-10-19T06:27:40;22.50;;;17.05;;
28802;SDS011;15949;55.656;37.422;2022-10-19T06:32:46;33.22;;;23.75;;
28802;SDS011;15949;55.656;37.422;2022-10-19T06:37:54;33.22;;;28.23;;
28802;SDS011;15949;55.656;37.422;2022-10-19T06:43:01;31.45;;;22.88;;
28802;SDS011;15949;55.656;37.422;2022-10-19T06:48:07;28.05;;;21.65;;
28802;SDS011;15949;55.656;37.422;2022-10-19T06:53:13;25.70;;;19.58;;
28802;SDS011;15949;55.656;37.422;2022-10-19T06:58:18;23.50;;;18.40;;
28802;SDS011;15949;55.656;37.422;2022-10-19T07:03:24;24.10;;;18.42;;
28802;SDS011;15949;55.656;37.422;2022-10-19T07:08:32;21.67;;;17.02;;
28802;SDS011;15949;55.656;37.422;2022-10-19T07:13:38;24.33;;;18.52;;
28802;SDS011;15949;55.656;37.422;2022-10-19T07:18:44;26.27;;;21.10;;
28802;SDS011;15949;55.656;37.422;2022-10-19T07:23:50;29.00;;;23.50;;
28802;SDS011;15949;55.656;37.422;2022-10-19T07:28:56;30.80;;;25.38;;
28802;SDS011;15949;55.656;37.422;2022-10-19T07:34:02;31.88;;;27.10;;
28802;SDS011;15949;55.656;37.422;2022-10-19T07:39:09;29.85;;;26.65;;
28802;SDS011;15949;55.656;37.422;2022-10-19T07:44:16;36.33;;;28.63;;
28802;SDS011;15949;55.656;37.422;2022-10-19T07:49:21;45.28;;;31.08;;
28802;SDS011;15949;55.656;37.422;2022-10-19T07:54:27;38.80;;;30.35;;
28802;SDS011;15949;55.656;37.422;2022-10-19T07:59:33;34.10;;;27.38;;
28802;SDS011;15949;55.656;37.422;2022-10-19T08:04:39;35.60;;;28.40;;
28802;SDS011;15949;55.656;37.422;2022-10-19T08:09:45;41.72;;;29.05;;
28802;SDS011;15949;55.656;37.422;2022-10-19T08:14:51;36.80;;;30.30;;
28802;SDS011;15949;55.656;37.422;2022-10-19T08:19:57;35.08;;;26.40;;
28802;SDS011;15949;55.656;37.422;2022-10-19T08:25:03;34.90;;;28.23;;
28802;SDS011;15949;55.656;37.422;2022-10-19T08:30:09;37.72;;;27.65;;
28802;SDS011;15949;55.656;37.422;2022-10-19T08:35:15;36.97;;;27.88;;
28802;SDS011;15949;55.656;37.422;2022-10-19T08:40:25;34.95;;;25.45;;
28802;SDS011;15949;55.656;37.422;2022-10-19T08:45:40;30.42;;;24.00;;
28802;SDS011;15949;55.656;37.422;2022-10-19T08:50:50;34.50;;;24.88;;
28802;SDS011;15949;55.656;37.422;2022-10-19T08:56:03;37.08;;;27.90;;
28802;SDS011;15949;55.656;37.422;2022-10-19T09:01:28;34.00;;;24.48;;
28802;SDS011;15949;55.656;37.422;2022-10-19T09:12:01;28.85;;;23.45;;
28802;SDS011;15949;55.656;37.422;2022-10-19T09:17:10;28.40;;;19.38;;
28802;SDS011;15949;55.656;37.422;2022-10-19T09:22:19;23.27;;;18.30;;
28802;SDS011;15949;55.656;37.422;2022-10-19T09:27:33;28.60;;;19.23;;
28802;SDS011;15949;55.656;37.422;2022-10-19T09:32:42;27.00;;;18.55;;
28802;SDS011;15949;55.656;37.422;2022-10-19T09:37:48;18.67;;;12.77;;
28802;SDS011;15949;55.656;37.422;2022-10-19T09:42:55;15.60;;;11.10;;
28802;SDS011;15949;55.656;37.422;2022-10-19T09:48:03;17.20;;;12.70;;
28802;SDS011;15949;55.656;37.422;2022-10-19T09:53:19;15.80;;;13.20;;
28802;SDS011;15949;55.656;37.422;2022-10-19T09:58:27;16.35;;;11.98;;
28802;SDS011;15949;55.656;37.422;2022-10-19T10:03:35;15.15;;;11.25;;
28802;SDS011;15949;55.656;37.422;2022-10-19T10:08:45;17.27;;;12.60;;
28802;SDS011;15949;55.656;37.422;2022-10-19T10:13:54;20.80;;;15.93;;
28802;SDS011;15949;55.656;37.422;2022-10-19T10:19:10;23.17;;;19.35;;
28802;SDS011;15949;55.656;37.422;2022-10-19T10:24:19;23.38;;;20.27;;
28802;SDS011;15949;55.656;37.422;2022-10-19T10:29:30;27.30;;;21.47;;
28802;SDS011;15949;55.656;37.422;2022-10-19T10:34:38;31.25;;;23.33;;
28802;SDS011;15949;55.656;37.422;2022-10-19T10:39:46;27.83;;;21.00;;
28802;SDS011;15949;55.656;37.422;2022-10-19T10:44:56;28.08;;;20.80;;
28802;SDS011;15949;55.656;37.422;2022-10-19T10:50:03;28.05;;;19.77;;
28802;SDS011;15949;55.656;37.422;2022-10-19T10:55:16;24.85;;;19.40;;
28802;SDS011;15949;55.656;37.422;2022-10-19T11:00:22;18.10;;;14.15;;
28802;SDS011;15949;55.656;37.422;2022-10-19T11:05:35;18.38;;;14.35;;
28802;SDS011;15949;55.656;37.422;2022-10-19T11:32:59;13.48;;;8.63;;
28802;SDS011;15949;55.656;37.422;2022-10-19T11:49:27;10.25;;;7.43;;
28802;SDS011;15949;55.656;37.422;2022-10-19T12:00:08;5.78;;;5.18;;
28802;SDS011;15949;55.656;37.422;2022-10-19T12:16:02;7.90;;;6.35;;
28802;SDS011;15949;55.656;37.422;2022-10-19T12:21:13;10.55;;;6.75;;
28802;SDS011;15949;55.656;37.422;2022-10-19T12:26:29;6.63;;;5.78;;
28802;SDS011;15949;55.656;37.422;2022-10-19T12:31:38;10.38;;;6.03;;
28802;SDS011;15949;55.656;37.422;2022-10-19T12:37:09;6.95;;;6.03;;
28802;SDS011;15949;55.656;37.422;2022-10-19T12:48:20;10.68;;;7.53;;
28802;SDS011;15949;55.656;37.422;2022-10-19T12:53:33;13.68;;;8.43;;
28802;SDS011;15949;55.656;37.422;2022-10-19T13:09:38;13.15;;;9.55;;
28802;SDS011;15949;55.656;37.422;2022-10-19T13:25:19;15.18;;;9.18;;
28802;SDS011;15949;55.656;37.422;2022-10-19T13:35:41;10.73;;;8.07;;
28802;SDS011;15949;55.656;37.422;2022-10-19T13:46:06;13.23;;;10.07;;
28802;SDS011;15949;55.656;37.422;2022-10-19T13:51:19;11.13;;;9.20;;
28802;SDS011;15949;55.656;37.422;2022-10-19T14:07:44;13.65;;;9.25;;
28802;SDS011;15949;55.656;37.422;2022-10-19T14:13:12;18.42;;;10.32;;
28802;SDS011;15949;55.656;37.422;2022-10-19T14:18:29;19.50;;;10.45;;
28802;SDS011;15949;55.656;37.422;2022-10-19T14:23:38;12.75;;;10.70;;
28802;SDS011;15949;55.656;37.422;2022-10-19T14:28:44;16.25;;;11.60;;
28802;SDS011;15949;55.656;37.422;2022-10-19T14:33:50;15.43;;;11.68;;
28802;SDS011;15949;55.656;37.422;2022-10-19T14:38:58;16.23;;;11.43;;
28802;SDS011;15949;55.656;37.422;2022-10-19T14:49:38;15.38;;;8.25;;
28802;SDS011;15949;55.656;37.422;2022-10-19T14:54:44;12.25;;;8.57;;
28802;SDS011;15949;55.656;37.422;2022-10-19T14:59:57;11.18;;;7.20;;
28802;SDS011;15949;55.656;37.422;2022-10-19T15:05:05;12.77;;;6.55;;
28802;SDS011;15949;55.656;37.422;2022-10-19T15:10:24;9.40;;;6.55;;
28802;SDS011;15949;55.656;37.422;2022-10-19T15:15:32;8.73;;;7.00;;
28802;SDS011;15949;55.656;37.422;2022-10-19T15:20:39;12.48;;;7.45;;
28802;SDS011;15949;55.656;37.422;2022-10-19T15:25:46;10.48;;;7.28;;
28802;SDS011;15949;55.656;37.422;2022-10-19T15:31:05;14.00;;;7.65;;
28802;SDS011;15949;55.656;37.422;2022-10-19T15:36:24;12.93;;;8.35;;
28802;SDS011;15949;55.656;37.422;2022-10-19T15:41:31;10.13;;;8.63;;
28802;SDS011;15949;55.656;37.422;2022-10-19T15:51:51;13.63;;;9.00;;
28802;SDS011;15949;55.656;37.422;2022-10-19T15:56:56;11.65;;;9.18;;
28802;SDS011;15949;55.656;37.422;2022-10-19T16:02:07;13.02;;;9.55;;
28802;SDS011;15949;55.656;37.422;2022-10-19T16:07:20;13.07;;;9.82;;
28802;SDS011;15949;55.656;37.422;2022-10-19T16:12:37;13.55;;;9.63;;
28802;SDS011;15949;55.656;37.422;2022-10-19T16:17:43;19.23;;;10.63;;
28802;SDS011;15949;55.656;37.422;2022-10-19T16:22:51;14.52;;;10.57;;
28802;SDS011;15949;55.656;37.422;2022-10-19T16:27:57;12.43;;;8.27;;
28802;SDS011;15949;55.656;37.422;2022-10-19T16:33:02;12.30;;;8.30;;
28802;SDS011;15949;55.656;37.422;2022-10-19T16:38:08;11.38;;;8.40;;
28802;SDS011;15949;55.656;37.422;2022-10-19T16:43:13;12.63;;;8.10;;
28802;SDS011;15949;55.656;37.422;2022-10-19T16:48:19;13.82;;;9.57;;
28802;SDS011;15949;55.656;37.422;2022-10-19T16:53:25;13.55;;;8.55;;
28802;SDS011;15949;55.656;37.422;2022-10-19T16:58:30;11.73;;;7.70;;
28802;SDS011;15949;55.656;37.422;2022-10-19T17:03:36;11.45;;;6.82;;
28802;SDS011;15949;55.656;37.422;2022-10-19T17:08:42;8.02;;;6.75;;
28802;SDS011;15949;55.656;37.422;2022-10-19T17:13:48;11.23;;;7.20;;
28802;SDS011;15949;55.656;37.422;2022-10-19T17:18:55;7.85;;;5.43;;
28802;SDS011;15949;55.656;37.422;2022-10-19T17:24:02;10.98;;;6.40;;
28802;SDS011;15949;55.656;37.422;2022-10-19T17:29:09;6.30;;;5.55;;
28802;SDS011;15949;55.656;37.422;2022-10-19T17:34:16;7.30;;;5.20;;
28802;SDS011;15949;55.656;37.422;2022-10-19T17:39:23;10.02;;;5.45;;
28802;SDS011;15949;55.656;37.422;2022-10-19T17:44:29;7.47;;;5.95;;
28802;SDS011;15949;55.656;37.422;2022-10-19T17:49:35;8.05;;;6.43;;
28802;SDS011;15949;55.656;37.422;2022-10-19T17:54:41;8.82;;;6.22;;
28802;SDS011;15949;55.656;37.422;2022-10-19T17:59:46;10.35;;;6.15;;
28802;SDS011;15949;55.656;37.422;2022-10-19T18:04:52;9.55;;;6.15;;
28802;SDS011;15949;55.656;37.422;2022-10-19T18:09:58;8.70;;;6.32;;
28802;SDS011;15949;55.656;37.422;2022-10-19T18:15:03;8.63;;;7.35;;
28802;SDS011;15949;55.656;37.422;2022-10-19T18:20:09;10.43;;;6.55;;
28802;SDS011;15949;55.656;37.422;2022-10-19T18:25:15;9.90;;;7.60;;
28802;SDS011;15949;55.656;37.422;2022-10-19T18:30:22;7.28;;;6.22;;
28802;SDS011;15949;55.656;37.422;2022-10-19T18:35:27;8.57;;;6.75;;
28802;SDS011;15949;55.656;37.422;2022-10-19T18:40:34;10.23;;;6.55;;
28802;SDS011;15949;55.656;37.422;2022-10-19T18:45:54;9.02;;;6.90;;
28802;SDS011;15949;55.656;37.422;2022-10-19T18:51:05;9.05;;;7.43;;
28802;SDS011;15949;55.656;37.422;2022-10-19T18:56:13;9.30;;;8.27;;
28802;SDS011;15949;55.656;37.422;2022-10-19T19:01:21;11.35;;;8.80;;
28802;SDS011;15949;55.656;37.422;2022-10-19T19:06:30;12.48;;;9.95;;
28802;SDS011;15949;55.656;37.422;2022-10-19T19:11:39;12.38;;;10.13;;
28802;SDS011;15949;55.656;37.422;2022-10-19T19:16:45;11.75;;;10.55;;
28802;SDS011;15949;55.656;37.422;2022-10-19T19:21:51;12.90;;;9.70;;
28802;SDS011;15949;55.656;37.422;2022-10-19T19:26:57;13.43;;;10.48;;
28802;SDS011;15949;55.656;37.422;2022-10-19T19:32:03;11.18;;;9.95;;
28802;SDS011;15949;55.656;37.422;2022-10-19T19:37:10;11.27;;;9.70;;
28802;SDS011;15949;55.656;37.422;2022-10-19T19:42:16;11.60;;;9.68;;
28802;SDS011;15949;55.656;37.422;2022-10-19T19:47:22;16.40;;;10.27;;
28802;SDS011;15949;55.656;37.422;2022-10-19T19:52:28;13.40;;;9.35;;
28802;SDS011;15949;55.656;37.422;2022-10-19T19:57:33;13.02;;;8.75;;
28802;SDS011;15949;55.656;37.422;2022-10-19T20:02:39;11.25;;;8.88;;
28802;SDS011;15949;55.656;37.422;2022-10-19T20:07:44;11.85;;;8.95;;
28802;SDS011;15949;55.656;37.422;2022-10-19T20:12:50;15.60;;;9.60;;
28802;SDS011;15949;55.656;37.422;2022-10-19T20:17:56;12.63;;;9.32;;
28802;SDS011;15949;55.656;37.422;2022-10-19T20:23:01;13.48;;;8.57;;
28802;SDS011;15949;55.656;37.422;2022-10-19T20:28:07;15.77;;;9.82;;
28802;SDS011;15949;55.656;37.422;2022-10-19T20:33:12;19.20;;;9.70;;
28802;SDS011;15949;55.656;37.422;2022-10-19T20:38:18;11.45;;;8.48;;
28802;SDS011;15949;55.656;37.422;2022-10-19T20:43:23;8.85;;;6.82;;
28802;SDS011;15949;55.656;37.422;2022-10-19T20:48:29;11.90;;;6.43;;
28802;SDS011;15949;55.656;37.422;2022-10-19T20:53:35;6.57;;;5.32;;
28802;SDS011;15949;55.656;37.422;2022-10-19T20:58:40;9.48;;;5.32;;
28802;SDS011;15949;55.656;37.422;2022-10-19T21:03:48;6.75;;;4.78;;
28802;SDS011;15949;55.656;37.422;2022-10-19T21:08:57;6.57;;;5.28;;
28802;SDS011;15949;55.656;37.422;2022-10-19T21:14:05;6.03;;;4.68;;
28802;SDS011;15949;55.656;37.422;2022-10-19T21:19:16;4.93;;;4.43;;
28802;SDS011;15949;55.656;37.422;2022-10-19T21:24:27;6.05;;;4.22;;
28802;SDS011;15949;55.656;37.422;2022-10-19T21:29:36;5.53;;;4.38;;
28802;SDS011;15949;55.656;37.422;2022-10-19T21:34:42;6.60;;;4.30;;
28802;SDS011;15949;55.656;37.422;2022-10-19T21:39:47;6.10;;;3.92;;
28802;SDS011;15949;55.656;37.422;2022-10-19T21:44:53;6.32;;;4.38;;
28802;SDS011;15949;55.656;37.422;2022-10-19T21:49:58;5.45;;;4.10;;
28802;SDS011;15949;55.656;37.422;2022-10-19T21:55:04;7.45;;;4.70;;
28802;SDS011;15949;55.656;37.422;2022-10-19T22:00:10;6.82;;;4.55;;
28802;SDS011;15949;55.656;37.422;2022-10-19T22:05:16;5.85;;;4.65;;
28802;SDS011;15949;55.656;37.422;2022-10-19T22:10:22;9.60;;;5.38;;
28802;SDS011;15949;55.656;37.422;2022-10-19T22:15:27;7.63;;;4.60;;
28802;SDS011;15949;55.656;37.422;2022-10-19T22:20:34;7.13;;;4.88;;
28802;SDS011;15949;55.656;37.422;2022-10-19T22:25:40;7.40;;;4.65;;
28802;SDS011;15949;55.656;37.422;2022-10-19T22:30:56;6.18;;;5.10;;
28802;SDS011;15949;55.656;37.422;2022-10-19T22:36:03;8.35;;;4.68;;
28802;SDS011;15949;55.656;37.422;2022-10-19T22:41:11;9.68;;;4.88;;
28802;SDS011;15949;55.656;37.422;2022-10-19T22:46:16;7.53;;;5.00;;
28802;SDS011;15949;55.656;37.422;2022-10-19T22:51:22;6.47;;;5.00;;
28802;SDS011;15949;55.656;37.422;2022-10-19T22:56:27;9.30;;;5.70;;
28802;SDS011;15949;55.656;37.422;2022-10-19T23:01:33;10.15;;;6.10;;
28802;SDS011;15949;55.656;37.422;2022-10-19T23:06:39;7.72;;;5.63;;
28802;SDS011;15949;55.656;37.422;2022-10-19T23:11:45;7.32;;;5.95;;
28802;SDS011;15949;55.656;37.422;2022-10-19T23:16:51;8.27;;;5.43;;
28802;SDS011;15949;55.656;37.422;2022-10-19T23:21:56;6.68;;;4.90;;
28802;SDS011;15949;55.656;37.422;2022-10-19T23:27:02;8.13;;;4.68;;
28802;SDS011;15949;55.656;37.422;2022-10-19T23:32:07;5.22;;;3.97;;
28802;SDS011;15949;55.656;37.422;2022-10-19T23:37:13;6.93;;;4.13;;
28802;SDS011;15949;55.656;37.422;2022-10-19T23:42:19;3.95;;;2.90;;
28802;SDS011;15949;55.656;37.422;2022-10-19T23:47:24;6.45;;;3.30;;
28802;SDS011;15949;55.656;37.422;2022-10-19T23:52:30;4.45;;;3.10;;
28802;SDS011;15949;55.656;37.422;2022-10-19T23:57:35;4.78;;;3.10;;
